Pleasant Plains, Arkansas
Current Conditions -  °F | °C
As of 2:15 AM on Monday 22 Dec 2014 (Local Time) from KBVX Reporting Station
Overcast Overcast  
Wind Chill: 41°   Ceiling: 3200
Heat Index: 45°   Visibility: 10mi
Dew Point: 37°   Wind: 7mph
Humidity: 76%   Direction: 120°ESE
Pressure: 29.83"   Gusts: NA
Location:  35.55°N, 91.63°W
Report Text: KBVX 220815Z AUTO 12006KT 10SM BKN032 OVC075 07/03 A2983 RMK AO1
Loading
Personal Weather Stations






























Interactive Weather Map New forecast layout! Learn more

10-Day Weather Forecast

Advertisements
Track Severe Weather on mobile